Time;durP1;ratioP1;P1;durP2;ratioP2;P2;SDS_P1;SDS_P2;PMS_P1;PMS_P2;Temp;Humidity;BMP_temperature;BMP_pressure;BME280_temperature;BME280_humidity;BME280_pressure;Samples;Min_cycle;Max_cycle;Signal;HPM_P1;HPM_P2
2023/03/31 05:23:59;;;;;;;;;;;;;;;14.39;63.66;96126.50;4190417;28;10353;-74
2023/03/31 05:26:02;;;;;;;;;;;;;;;14.65;63.18;96126.03;4196832;28;5733;-74
2023/03/31 05:28:05;;;;;;;;;;;;;;;14.84;62.51;96121.38;4194491;28;5734;-74
2023/03/31 05:30:09;;;;;;;;;;;;;;;14.99;62.27;96126.97;4197224;28;5713;-74
2023/03/31 05:32:12;;;;;;;;;;;;;;;15.10;61.97;96120.00;4196280;28;5796;-75
2023/03/31 05:34:16;;;;;;;;;;;;;;;15.20;61.46;96112.19;4194060;28;6055;-75
2023/03/31 05:36:19;;;;;;;;;;;;;;;15.27;61.34;96112.03;4189656;28;5935;-75
2023/03/31 05:38:22;;;;;;;;;;;;;;;15.35;60.98;96109.78;4181464;28;5863;-76
2023/03/31 05:40:26;;;;;;;;;;;;;;;15.41;60.58;96124.03;4197097;28;5667;-75
2023/03/31 05:42:29;;;;;;;;;;;;;;;15.46;60.67;96136.63;4197894;28;5724;-75
2023/03/31 05:44:32;;;;;;;;;;;;;;;15.48;60.16;96130.00;4197377;28;5739;-75
2023/03/31 05:46:35;;;;;;;;;;;;;;;15.50;60.04;96135.88;4197631;28;5709;-74
2023/03/31 05:48:38;;;;;;;;;;;;;;;15.52;59.83;96115.16;4197919;28;5721;-73
2023/03/31 05:50:41;;;;;;;;;;;;;;;15.55;59.62;96127.19;4194209;28;5823;-73
2023/03/31 05:52:45;;;;;;;;;;;;;;;15.57;59.61;96127.75;4197388;28;5761;-74
2023/03/31 05:54:48;;;;;;;;;;;;;;;15.58;59.16;96124.84;4197360;28;5713;-74
2023/03/31 05:56:53;;;;;;;;;;;;;;;15.59;59.35;96131.78;4179944;28;5965;-74
2023/03/31 05:58:56;;;;;;;;;;;;;;;15.62;59.21;96138.50;4193954;28;5840;-77
2023/03/31 06:01:05;;;;;;;;;;;;;;;15.67;59.14;96136.75;4191381;28;5843;-75
2023/03/31 06:03:09;;;;;;;;;;;;;;;15.70;58.83;96144.25;4192215;28;5729;-75
2023/03/31 06:05:12;;;;;;;;;;;;;;;15.70;58.68;96149.59;4197281;28;5740;-75
2023/03/31 06:07:16;;;;;;;;;;;;;;;15.70;58.30;96157.59;4200003;28;5729;-78
2023/03/31 06:09:20;;;;;;;;;;;;;;;15.70;58.54;96165.56;4198956;28;5706;-77
2023/03/31 06:11:23;;;;;;;;;;;;;;;15.69;58.37;96153.31;4196362;28;6382;-77
2023/03/31 06:13:27;;;;;;;;;;;;;;;15.71;58.18;96159.19;4194788;28;5710;-76
2023/03/31 06:15:30;;;;;;;;;;;;;;;15.75;58.38;96172.06;4193798;28;5713;-74
2023/03/31 06:17:33;;;;;;;;;;;;;;;15.73;58.18;96181.09;4182791;28;5850;-74
2023/03/31 06:19:39;;;;;;;;;;;;;;;15.73;58.26;96185.59;4187418;28;5709;-75
2023/03/31 06:21:41;;;;;;;;;;;;;;;15.75;58.24;96174.72;4196193;28;5796;-75
2023/03/31 06:23:45;;;;;;;;;;;;;;;15.78;58.27;96176.91;4191018;28;6552;-75
2023/03/31 06:25:48;;;;;;;;;;;;;;;15.80;58.28;96180.94;4183146;28;5725;-75
2023/03/31 06:27:54;;;;;;;;;;;;;;;15.80;58.12;96183.59;4185594;28;5765;-75
2023/03/31 06:29:59;;;;;;;;;;;;;;;15.80;58.01;96188.13;4184304;28;5841;-75
2023/03/31 06:32:03;;;;;;;;;;;;;;;15.77;57.98;96186.75;4185951;28;5811;-75
2023/03/31 06:34:07;;;;;;;;;;;;;;;15.77;58.23;96185.94;4185789;28;5920;-75
2023/03/31 06:36:12;;;;;;;;;;;;;;;15.75;58.13;96191.53;4186063;28;5709;-75
2023/03/31 06:38:15;;;;;;;;;;;;;;;15.79;58.08;96197.19;4186653;28;5776;-75
2023/03/31 06:40:18;;;;;;;;;;;;;;;15.81;58.19;96173.75;4186336;28;5713;-75
2023/03/31 06:42:21;;;;;;;;;;;;;;;15.82;58.23;96191.34;4173701;28;5698;-75
2023/03/31 06:44:24;;;;;;;;;;;;;;;15.84;58.11;96184.72;4183216;28;5725;-75
2023/03/31 06:46:28;;;;;;;;;;;;;;;15.81;57.88;96165.75;4182109;28;5709;-75
2023/03/31 06:48:32;;;;;;;;;;;;;;;15.79;57.79;96163.34;4186509;28;5705;-75
2023/03/31 06:50:37;;;;;;;;;;;;;;;15.81;57.97;96184.41;4186457;28;5807;-75
2023/03/31 06:52:41;;;;;;;;;;;;;;;15.85;57.98;96193.53;4186152;28;6415;-75
2023/03/31 06:54:44;;;;;;;;;;;;;;;15.88;57.85;96183.22;4186481;28;5730;-75
2023/03/31 06:56:47;;;;;;;;;;;;;;;15.91;57.93;96187.25;4180890;28;5721;-74
2023/03/31 06:58:50;;;;;;;;;;;;;;;15.94;57.66;96186.75;4185737;28;5811;-75
2023/03/31 07:00:53;;;;;;;;;;;;;;;15.97;57.68;96202.28;4181842;28;5912;-75
2023/03/31 07:02:57;;;;;;;;;;;;;;;15.98;57.71;96206.56;4184790;28;5857;-75
2023/03/31 07:05:00;;;;;;;;;;;;;;;15.96;57.61;96206.78;4184557;28;5709;-75
2023/03/31 07:07:03;;;;;;;;;;;;;;;15.95;57.75;96199.03;4185797;28;5709;-75
2023/03/31 07:09:07;;;;;;;;;;;;;;;15.92;57.90;96211.00;4185550;28;5708;-75
2023/03/31 07:11:11;;;;;;;;;;;;;;;15.93;57.62;96201.16;4180643;28;5829;-75
2023/03/31 07:13:15;;;;;;;;;;;;;;;15.93;57.61;96190.47;4176593;28;5713;-74
2023/03/31 07:15:19;;;;;;;;;;;;;;;15.92;57.68;96181.69;4180536;28;5717;-76
2023/03/31 07:17:24;;;;;;;;;;;;;;;15.92;57.63;96188.88;4185767;28;5725;-75
2023/03/31 07:19:30;;;;;;;;;;;;;;;15.91;57.57;96192.59;4185853;28;5721;-74
2023/03/31 07:21:38;;;;;;;;;;;;;;;15.93;57.73;96190.47;4179582;28;5750;-75
2023/03/31 07:23:41;;;;;;;;;;;;;;;15.95;57.47;96178.50;4178306;28;5792;-76
2023/03/31 07:25:44;;;;;;;;;;;;;;;15.96;57.49;96187.31;4170446;28;5746;-76
2023/03/31 07:27:47;;;;;;;;;;;;;;;15.94;57.54;96192.91;4171312;28;5821;-75
2023/03/31 07:29:50;;;;;;;;;;;;;;;15.94;57.50;96190.22;4178964;28;5697;-75
2023/03/31 07:31:53;;;;;;;;;;;;;;;15.94;57.44;96184.91;4177588;28;5716;-74
2023/03/31 07:33:56;;;;;;;;;;;;;;;15.92;57.67;96181.69;4177345;28;5659;-75
2023/03/31 07:36:04;;;;;;;;;;;;;;;15.90;57.50;96185.63;4171168;28;5734;-76
2023/03/31 07:38:15;;;;;;;;;;;;;;;15.90;57.50;96182.97;4184956;28;5775;-82
2023/03/31 07:40:21;;;;;;;;;;;;;;;15.91;57.58;96177.41;4183662;28;5908;-84
2023/03/31 07:42:24;;;;;;;;;;;;;;;15.91;57.73;96179.25;4175562;28;6077;-83
2023/03/31 07:44:28;;;;;;;;;;;;;;;15.90;57.68;96158.97;4184075;28;6386;-83
2023/03/31 07:46:33;;;;;;;;;;;;;;;15.95;57.48;96162.53;4182758;28;5804;-83
2023/03/31 07:48:36;;;;;;;;;;;;;;;15.98;57.48;96170.06;4178067;28;5798;-83
2023/03/31 07:50:39;;;;;;;;;;;;;;;16.00;57.31;96172.47;4183353;28;5960;-82
2023/03/31 07:52:44;;;;;;;;;;;;;;;15.99;57.29;96168.19;4179439;28;7754;-82
2023/03/31 07:54:49;;;;;;;;;;;;;;;15.98;57.33;96158.59;4182964;28;5833;-82
2023/03/31 07:56:52;;;;;;;;;;;;;;;15.97;57.50;96159.66;4182543;28;5804;-67
2023/03/31 07:58:56;;;;;;;;;;;;;;;15.94;57.36;96154.78;4175446;28;6529;-71
2023/03/31 08:00:59;;;;;;;;;;;;;;;16.00;57.43;96167.16;4178841;28;5900;-83
2023/03/31 08:03:02;;;;;;;;;;;;;;;16.06;57.38;96157.34;4184632;28;5718;-83
2023/03/31 08:05:07;;;;;;;;;;;;;;;16.08;57.13;96161.38;4182892;28;5873;-83
2023/03/31 08:07:11;;;;;;;;;;;;;;;16.08;57.15;96166.72;4178846;28;5723;-82
2023/03/31 08:09:16;;;;;;;;;;;;;;;16.07;57.17;96162.44;4178090;28;5740;-81
2023/03/31 08:11:20;;;;;;;;;;;;;;;16.11;57.03;96160.94;4184072;28;5912;-82
2023/03/31 08:13:23;;;;;;;;;;;;;;;16.11;56.99;96158.25;4181416;28;5803;-82
2023/03/31 08:15:26;;;;;;;;;;;;;;;16.17;56.96;96159.94;4185052;28;5772;-83
2023/03/31 08:17:28;;;;;;;;;;;;;;;16.20;56.90;96153.34;4179853;28;5829;-82
2023/03/31 08:19:37;;;;;;;;;;;;;;;16.20;56.86;96164.81;4181538;28;5812;-82
2023/03/31 08:21:40;;;;;;;;;;;;;;;16.22;56.79;96156.56;4178616;28;5815;-65
2023/03/31 08:23:43;;;;;;;;;;;;;;;16.22;56.90;96173.38;4167993;28;5929;-63
2023/03/31 08:25:48;;;;;;;;;;;;;;;16.22;56.69;96175.22;4177921;28;5815;-66
2023/03/31 08:27:51;;;;;;;;;;;;;;;16.20;56.57;96180.81;4179260;28;5949;-75
2023/03/31 08:29:56;;;;;;;;;;;;;;;16.18;56.62;96169.56;4183682;28;5860;-74
2023/03/31 08:32:00;;;;;;;;;;;;;;;16.17;56.55;96183.13;4180218;28;5721;-72
2023/03/31 08:34:03;;;;;;;;;;;;;;;16.18;56.57;96182.88;4180015;28;5992;-74
2023/03/31 08:36:09;;;;;;;;;;;;;;;16.19;56.21;96184.50;4180921;28;5857;-72
2023/03/31 08:38:12;;;;;;;;;;;;;;;16.16;56.26;96170.84;4178201;28;5656;-72
2023/03/31 08:40:20;;;;;;;;;;;;;;;16.18;55.99;96182.06;4178914;28;5710;-70
2023/03/31 08:42:36;;;;;;;;;;;;;;;16.21;56.03;96182.41;4183120;28;6339;-71
2023/03/31 08:44:44;;;;;;;;;;;;;;;16.25;55.82;96177.41;4183160;28;5916;-74
2023/03/31 08:46:51;;;;;;;;;;;;;;;16.30;55.44;96183.59;4183204;28;5808;-74
2023/03/31 08:48:56;;;;;;;;;;;;;;;16.31;55.27;96184.44;4179455;28;5926;-74
2023/03/31 08:51:05;;;;;;;;;;;;;;;16.32;55.41;96178.06;4182928;28;6436;-70
2023/03/31 08:53:24;;;;;;;;;;;;;;;16.34;55.25;96181.28;4182639;28;5705;-69
2023/03/31 08:55:37;;;;;;;;;;;;;;;16.37;55.28;96170.09;4180698;28;5856;-83
2023/03/31 08:57:53;;;;;;;;;;;;;;;16.37;55.32;96180.78;4180029;28;5721;-83
2023/03/31 09:00:02;;;;;;;;;;;;;;;16.40;55.16;96182.13;4177062;28;5849;-82
2023/03/31 09:02:18;;;;;;;;;;;;;;;16.39;55.00;96183.19;4181412;28;5908;-83
2023/03/31 09:04:40;;;;;;;;;;;;;;;16.36;55.22;96187.16;4182706;28;5094;-82
2023/03/31 09:06:52;;;;;;;;;;;;;;;16.36;55.20;96192.50;4179240;28;7861;-83
2023/03/31 09:09:01;;;;;;;;;;;;;;;16.35;55.20;96198.91;4185839;28;5833;-82
2023/03/31 09:11:11;;;;;;;;;;;;;;;16.27;55.29;96194.75;4186109;28;5725;-82
2023/03/31 09:13:45;;;;;;;;;;;;;;;16.20;55.53;96172.81;4187422;28;5910;-82
2023/03/31 09:15:54;;;;;;;;;;;;;;;16.23;55.71;96180.31;4190103;28;5701;-71
2023/03/31 09:18:06;;;;;;;;;;;;;;;16.24;55.78;96165.13;4176433;28;5784;-70
2023/03/31 09:20:16;;;;;;;;;;;;;;;16.25;55.94;96162.19;4178886;28;5843;-71
2023/03/31 09:22:25;;;;;;;;;;;;;;;16.27;55.85;96151.28;4175730;28;5738;-72
2023/03/31 09:24:31;;;;;;;;;;;;;;;16.28;56.08;96153.69;4179332;28;5829;-72
2023/03/31 09:26:39;;;;;;;;;;;;;;;16.26;56.00;96147.81;4181722;28;5713;-74
2023/03/31 09:28:44;;;;;;;;;;;;;;;16.27;56.00;96154.75;4181361;28;5888;-74
2023/03/31 09:30:49;;;;;;;;;;;;;;;16.25;55.82;96158.72;4182537;28;5796;-69
2023/03/31 09:32:58;;;;;;;;;;;;;;;16.21;55.95;96163.75;4175382;28;5807;-70
2023/03/31 09:35:12;;;;;;;;;;;;;;;16.22;55.94;96159.22;4179466;28;5818;-72
2023/03/31 09:37:17;;;;;;;;;;;;;;;16.27;55.97;96146.75;4177752;28;5837;-74
2023/03/31 09:39:22;;;;;;;;;;;;;;;16.31;55.90;96141.75;4176525;28;5830;-73
2023/03/31 09:41:26;;;;;;;;;;;;;;;16.33;55.90;96150.31;4173857;28;5935;-73
2023/03/31 09:43:35;;;;;;;;;;;;;;;16.35;55.52;96145.53;4179703;28;5716;-73
2023/03/31 09:45:39;;;;;;;;;;;;;;;16.39;55.45;96146.66;4176323;28;5929;-75
2023/03/31 09:47:46;;;;;;;;;;;;;;;16.46;55.31;96143.81;4174541;28;5853;-72
2023/03/31 09:49:55;;;;;;;;;;;;;;;16.50;55.06;96136.94;4176168;28;5841;-70
2023/03/31 09:52:03;;;;;;;;;;;;;;;16.50;54.99;96134.28;4174468;28;5804;-77
2023/03/31 09:54:13;;;;;;;;;;;;;;;16.47;55.04;96124.91;4173117;28;5840;-69
2023/03/31 09:56:33;;;;;;;;;;;;;;;16.47;54.93;96100.09;4181615;28;5716;-78
2023/03/31 09:58:41;;;;;;;;;;;;;;;16.46;54.69;96098.47;4174302;28;5748;-68
2023/03/31 10:01:00;;;;;;;;;;;;;;;16.48;54.59;96099.03;4178599;28;5762;-69
2023/03/31 10:03:06;;;;;;;;;;;;;;;16.44;54.32;96096.06;4177738;28;5813;-76
2023/03/31 10:05:22;;;;;;;;;;;;;;;16.46;54.09;96104.63;4185092;28;5717;-74
2023/03/31 10:07:26;;;;;;;;;;;;;;;16.44;53.94;96117.41;4176349;28;5104;-69
2023/03/31 10:09:33;;;;;;;;;;;;;;;16.43;54.19;96110.44;4183417;28;5524;-76
2023/03/31 10:11:36;;;;;;;;;;;;;;;16.41;53.95;96101.88;4182404;28;8457;-67
2023/03/31 10:13:46;;;;;;;;;;;;;;;16.47;53.90;96079.56;4178420;28;5658;-67
2023/03/31 10:15:54;;;;;;;;;;;;;;;16.58;53.81;96075.16;4182945;28;5923;-66
2023/03/31 10:17:59;;;;;;;;;;;;;;;16.69;53.38;96068.09;4185064;28;5705;-67
2023/03/31 10:20:17;;;;;;;;;;;;;;;16.73;53.13;96070.00;4185207;28;6551;-67
2023/03/31 10:22:28;;;;;;;;;;;;;;;16.72;53.38;96081.75;4184499;28;6279;-67
2023/03/31 10:24:39;;;;;;;;;;;;;;;16.71;53.17;96068.66;4180762;28;5836;-67
2023/03/31 10:26:44;;;;;;;;;;;;;;;16.68;53.03;96071.84;4184217;28;5861;-67
2023/03/31 10:28:51;;;;;;;;;;;;;;;16.64;53.15;96073.34;4185208;28;5712;-68
2023/03/31 10:31:00;;;;;;;;;;;;;;;16.59;53.19;96088.25;4178028;28;6541;-67
2023/03/31 10:33:06;;;;;;;;;;;;;;;16.57;52.56;96093.03;4184176;28;5784;-66
2023/03/31 10:35:26;;;;;;;;;;;;;;;16.60;52.39;96073.03;4184655;28;5809;-67
2023/03/31 10:37:30;;;;;;;;;;;;;;;16.61;52.35;96082.66;4176517;28;5827;-67
2023/03/31 10:39:34;;;;;;;;;;;;;;;16.63;52.09;96075.19;4182654;28;5890;-67
2023/03/31 10:41:38;;;;;;;;;;;;;;;16.69;51.56;96068.91;4183610;28;5827;-68
2023/03/31 10:43:43;;;;;;;;;;;;;;;16.70;51.69;96073.19;4183025;28;5867;-67
2023/03/31 10:45:49;;;;;;;;;;;;;;;16.68;51.73;96077.16;4183159;28;5282;-67
2023/03/31 10:47:55;;;;;;;;;;;;;;;16.63;51.73;96067.19;4183408;28;8461;-67
2023/03/31 10:49:58;;;;;;;;;;;;;;;16.60;51.63;96067.69;4176608;28;8581;-66
2023/03/31 10:52:01;;;;;;;;;;;;;;;16.57;51.62;96063.66;4182131;28;5800;-66
2023/03/31 10:54:08;;;;;;;;;;;;;;;16.54;51.62;96080.19;4174516;28;5105;-66
2023/03/31 10:56:36;;;;;;;;;;;;;;;16.54;51.45;96090.84;4183424;28;6603;-67
2023/03/31 10:59:06;;;;;;;;;;;;;;;16.50;51.13;96056.91;4174382;28;5876;-67
2023/03/31 11:01:24;;;;;;;;;;;;;;;16.47;50.97;96041.41;4183297;28;5729;-67
2023/03/31 11:03:50;;;;;;;;;;;;;;;16.50;50.42;96016.88;4183646;28;5856;-67
2023/03/31 11:05:58;;;;;;;;;;;;;;;16.48;50.28;96016.31;4183127;28;5818;-67
2023/03/31 11:08:13;;;;;;;;;;;;;;;16.42;49.74;96006.63;4179372;28;5750;-67
2023/03/31 11:10:37;;;;;;;;;;;;;;;16.39;49.79;96005.28;4185520;28;5831;-67
2023/03/31 11:12:45;;;;;;;;;;;;;;;16.39;49.69;95991.94;4177876;28;5717;-66
2023/03/31 11:15:00;;;;;;;;;;;;;;;16.39;49.48;96002.63;4180799;28;5725;-66
2023/03/31 11:17:17;;;;;;;;;;;;;;;16.43;49.37;96005.59;4176541;28;5856;-67
2023/03/31 11:19:36;;;;;;;;;;;;;;;16.49;49.31;96001.94;4183268;28;5722;-67
2023/03/31 11:21:51;;;;;;;;;;;;;;;16.50;49.04;96006.22;4182698;28;5960;-66
2023/03/31 11:24:04;;;;;;;;;;;;;;;16.53;48.86;95993.16;4178123;28;5704;-66
2023/03/31 11:26:12;;;;;;;;;;;;;;;16.57;48.43;95999.63;4182395;28;5713;-67
2023/03/31 11:28:33;;;;;;;;;;;;;;;16.64;48.15;95994.09;4182665;28;5728;-67
2023/03/31 11:30:40;;;;;;;;;;;;;;;16.67;47.99;95993.59;4181630;28;5717;-67
2023/03/31 11:32:53;;;;;;;;;;;;;;;16.73;47.96;96024.66;4185092;28;5721;-67
2023/03/31 11:35:18;;;;;;;;;;;;;;;16.77;47.44;96020.44;4183436;28;5732;-66
2023/03/31 11:37:40;;;;;;;;;;;;;;;16.82;47.64;96033.81;4184218;28;5705;-67
2023/03/31 11:39:56;;;;;;;;;;;;;;;16.85;47.45;96040.53;4184784;28;5721;-67
2023/03/31 11:42:03;;;;;;;;;;;;;;;16.87;47.36;96067.75;4184671;28;5720;-66
2023/03/31 11:44:10;;;;;;;;;;;;;;;16.87;47.13;96068.59;4184557;28;5890;-66
2023/03/31 11:46:18;;;;;;;;;;;;;;;16.83;47.01;96072.00;4185133;28;5725;-67
2023/03/31 11:48:32;;;;;;;;;;;;;;;16.74;46.89;96086.84;4185130;28;5146;-68
2023/03/31 11:50:41;;;;;;;;;;;;;;;16.59;46.60;96117.59;4184618;28;5724;-68
2023/03/31 11:52:53;;;;;;;;;;;;;;;16.44;46.88;96124.59;4185002;28;6434;-67
2023/03/31 11:55:01;;;;;;;;;;;;;;;16.26;47.12;96136.34;4178799;28;5867;-67
2023/03/31 11:57:13;;;;;;;;;;;;;;;16.07;47.17;96106.44;4183308;28;5830;-66
2023/03/31 11:59:19;;;;;;;;;;;;;;;15.86;47.17;96123.22;4184176;28;5788;-66
2023/03/31 12:01:28;;;;;;;;;;;;;;;15.63;47.59;96142.81;4184615;28;5721;-67
2023/03/31 12:03:42;;;;;;;;;;;;;;;15.50;47.84;96151.88;4184113;28;5769;-67
2023/03/31 12:05:51;;;;;;;;;;;;;;;15.37;47.81;96186.78;4184565;28;5705;-67
2023/03/31 12:08:05;;;;;;;;;;;;;;;15.17;47.87;96165.09;4184837;28;5705;-67
2023/03/31 12:10:18;;;;;;;;;;;;;;;15.04;47.93;96187.47;4184572;28;5736;-67
2023/03/31 12:12:28;;;;;;;;;;;;;;;14.91;48.30;96187.75;4184450;28;5111;-67
2023/03/31 12:14:38;;;;;;;;;;;;;;;14.74;48.18;96169.06;4178874;28;5863;-67
2023/03/31 12:16:45;;;;;;;;;;;;;;;14.61;48.53;96145.34;4184370;28;5847;-67
2023/03/31 12:19:01;;;;;;;;;;;;;;;14.46;48.93;96159.13;4177913;28;6387;-68
2023/03/31 12:21:06;;;;;;;;;;;;;;;14.23;49.66;96160.72;4179922;28;5733;-68
2023/03/31 12:23:14;;;;;;;;;;;;;;;14.07;49.71;96176.56;4183122;28;7301;-68
2023/03/31 12:25:25;;;;;;;;;;;;;;;13.93;50.08;96163.50;4183462;28;5076;-68
2023/03/31 12:27:33;;;;;;;;;;;;;;;13.91;50.32;96184.16;4184432;28;6548;-67
2023/03/31 12:29:40;;;;;;;;;;;;;;;13.91;50.39;96173.50;4180253;28;6495;-66
2023/03/31 12:31:45;;;;;;;;;;;;;;;13.98;50.15;96162.78;4182388;28;5717;-67
2023/03/31 12:33:53;;;;;;;;;;;;;;;14.08;50.49;96159.56;4182567;28;5713;-67
2023/03/31 12:36:13;;;;;;;;;;;;;;;14.20;50.11;96157.72;4177304;28;5736;-66
2023/03/31 12:38:34;;;;;;;;;;;;;;;14.39;50.14;96137.16;4175560;28;6696;-67
2023/03/31 12:40:56;;;;;;;;;;;;;;;14.50;49.95;96139.03;4177091;28;6595;-66
2023/03/31 12:43:30;;;;;;;;;;;;;;;14.49;50.26;96138.19;4176777;28;5772;-67
2023/03/31 12:45:40;;;;;;;;;;;;;;;14.62;50.38;96125.69;4182571;28;5812;-66
2023/03/31 12:48:03;;;;;;;;;;;;;;;14.66;50.16;96121.50;4175880;28;5709;-66
2023/03/31 12:50:32;;;;;;;;;;;;;;;14.80;50.43;96122.84;4178326;28;5712;-66
2023/03/31 12:52:47;;;;;;;;;;;;;;;14.87;50.33;96130.72;4174748;28;5713;-66
2023/03/31 12:55:29;;;;;;;;;;;;;;;14.92;50.35;96122.81;4178325;28;5701;-66
2023/03/31 12:57:33;;;;;;;;;;;;;;;15.06;50.16;96111.69;4154500;28;5717;-67
2023/03/31 12:59:40;;;;;;;;;;;;;;;15.15;50.34;96104.09;4172020;28;6705;-67
2023/03/31 13:02:19;;;;;;;;;;;;;;;15.25;50.20;96100.81;4178050;28;5844;-66
2023/03/31 13:04:27;;;;;;;;;;;;;;;15.32;50.29;96104.16;4175771;28;5925;-66
2023/03/31 13:06:55;;;;;;;;;;;;;;;15.39;50.16;96099.47;4180460;28;5725;-66
2023/03/31 13:09:03;;;;;;;;;;;;;;;15.41;50.23;96078.75;4174275;28;5716;-66
2023/03/31 13:11:06;;;;;;;;;;;;;;;15.44;50.27;96094.25;4176052;28;5920;-67
2023/03/31 13:13:15;;;;;;;;;;;;;;;15.49;50.37;96074.88;4174936;28;6065;-67
2023/03/31 13:15:28;;;;;;;;;;;;;;;15.45;50.08;96071.88;4177039;28;6921;-67
2023/03/31 13:17:35;;;;;;;;;;;;;;;15.43;50.16;96064.13;4174647;28;5897;-67
2023/03/31 13:19:41;;;;;;;;;;;;;;;15.44;50.32;96054.28;4177581;28;5924;-67
2023/03/31 13:21:55;;;;;;;;;;;;;;;15.43;50.20;96048.16;4181222;28;5737;-67
2023/03/31 13:24:02;;;;;;;;;;;;;;;15.44;50.37;96048.97;4143724;28;5856;-67
2023/03/31 13:26:05;;;;;;;;;;;;;;;15.46;50.38;96035.41;4143227;28;6443;-66
2023/03/31 13:28:16;;;;;;;;;;;;;;;15.48;50.53;96033.28;4145537;28;5978;-67
2023/03/31 13:30:49;;;;;;;;;;;;;;;15.54;50.68;96037.66;4149377;28;5755;-66
2023/03/31 13:33:05;;;;;;;;;;;;;;;15.52;50.80;96023.78;4144981;28;5948;-67
2023/03/31 13:35:15;;;;;;;;;;;;;;;15.52;50.54;96021.94;4141443;28;5946;-67
2023/03/31 13:37:33;;;;;;;;;;;;;;;15.53;50.81;96015.56;4153269;28;5763;-66
2023/03/31 13:39:56;;;;;;;;;;;;;;;15.56;50.90;96012.41;4148454;28;5957;-67
2023/03/31 13:42:14;;;;;;;;;;;;;;;15.61;50.68;96004.50;4145002;28;5882;-68
2023/03/31 13:44:41;;;;;;;;;;;;;;;15.64;50.81;96006.69;4146275;28;5963;-67
2023/03/31 13:47:06;;;;;;;;;;;;;;;15.70;50.63;96005.69;4152681;28;5792;-67
2023/03/31 13:49:26;;;;;;;;;;;;;;;15.79;50.97;95991.97;4150832;28;5780;-67
2023/03/31 13:51:38;;;;;;;;;;;;;;;15.92;50.62;95984.44;4150948;28;5754;-69
2023/03/31 13:54:19;;;;;;;;;;;;;;;16.04;50.38;95973.66;4143722;28;5965;-68
2023/03/31 13:56:39;;;;;;;;;;;;;;;16.16;50.32;95978.84;4135043;28;5747;-68
2023/03/31 13:59:13;;;;;;;;;;;;;;;16.24;50.47;95968.56;4150999;28;5840;-68
2023/03/31 14:01:51;;;;;;;;;;;;;;;16.27;50.30;95957.41;4145628;28;5854;-68
2023/03/31 14:04:08;;;;;;;;;;;;;;;16.18;50.43;95985.56;4144441;28;5808;-68
2023/03/31 14:06:17;;;;;;;;;;;;;;;16.17;50.40;95981.28;4143238;28;5970;-68
2023/03/31 14:08:32;;;;;;;;;;;;;;;16.12;50.21;95959.91;4151576;28;5818;-68
2023/03/31 14:10:37;;;;;;;;;;;;;;;16.03;50.56;95969.38;4148511;28;5772;-67
2023/03/31 14:12:46;;;;;;;;;;;;;;;16.01;50.52;95974.94;4143254;28;5930;-67
2023/03/31 14:14:54;;;;;;;;;;;;;;;15.91;50.25;95952.69;4144057;28;5878;-66
2023/03/31 14:17:02;;;;;;;;;;;;;;;15.89;50.41;95976.13;4137631;28;5888;-67
2023/03/31 14:19:23;;;;;;;;;;;;;;;15.86;50.41;95982.75;4144495;28;6046;-67
2023/03/31 14:21:34;;;;;;;;;;;;;;;15.80;50.41;96017.56;4149476;28;5748;-67
2023/03/31 14:23:49;;;;;;;;;;;;;;;15.66;50.49;96003.78;4164125;28;5857;-67
2023/03/31 14:26:01;;;;;;;;;;;;;;;15.52;50.68;96032.59;4175332;28;5863;-67
2023/03/31 14:28:19;;;;;;;;;;;;;;;15.33;50.52;96063.97;4177269;28;6536;-67
2023/03/31 14:30:33;;;;;;;;;;;;;;;15.04;51.33;96075.69;4173062;28;5866;-67
2023/03/31 14:32:44;;;;;;;;;;;;;;;14.66;52.03;96063.81;4176864;28;5852;-66
2023/03/31 14:35:03;;;;;;;;;;;;;;;14.51;52.15;96071.47;4173648;28;5850;-66
2023/03/31 14:37:10;;;;;;;;;;;;;;;14.41;52.17;96040.13;4177437;28;5837;-67
2023/03/31 14:39:16;;;;;;;;;;;;;;;14.37;52.49;96038.16;4175583;28;5839;-66
2023/03/31 14:41:28;;;;;;;;;;;;;;;14.33;52.29;96045.81;4181888;28;5714;-66
2023/03/31 14:43:36;;;;;;;;;;;;;;;14.27;52.51;96054.75;4173879;28;5740;-66
2023/03/31 14:45:38;;;;;;;;;;;;;;;14.25;52.24;96057.59;4179734;28;5851;-68
2023/03/31 14:47:41;;;;;;;;;;;;;;;14.20;52.36;96054.06;4176539;28;5898;-67
2023/03/31 14:49:45;;;;;;;;;;;;;;;14.15;52.03;96030.81;4178701;28;6842;-67
2023/03/31 14:51:48;;;;;;;;;;;;;;;14.12;52.37;96030.47;4180252;28;5795;-67
2023/03/31 14:53:56;;;;;;;;;;;;;;;14.12;52.39;95962.19;4177871;28;5839;-68
2023/03/31 14:56:07;;;;;;;;;;;;;;;14.14;52.17;95943.34;4176501;28;5124;-68
2023/03/31 14:58:14;;;;;;;;;;;;;;;14.15;52.14;95939.63;4175470;28;5697;-68
2023/03/31 15:00:24;;;;;;;;;;;;;;;14.23;51.73;95945.38;4177001;28;5712;-68
2023/03/31 15:02:33;;;;;;;;;;;;;;;14.33;51.82;95947.44;4178687;28;5861;-68
2023/03/31 15:04:43;;;;;;;;;;;;;;;14.47;51.56;95954.13;4174021;28;6537;-68
2023/03/31 15:06:48;;;;;;;;;;;;;;;14.63;51.31;95951.75;4170437;28;5781;-68
2023/03/31 15:08:56;;;;;;;;;;;;;;;14.75;51.09;95947.19;4173450;28;5734;-69
2023/03/31 15:11:02;;;;;;;;;;;;;;;14.83;51.09;95962.72;4181861;28;5800;-68
2023/03/31 15:13:19;;;;;;;;;;;;;;;14.93;51.19;95978.06;4179818;28;5717;-68
2023/03/31 15:15:23;;;;;;;;;;;;;;;15.03;50.86;96005.66;4176701;28;5844;-69
2023/03/31 15:17:31;;;;;;;;;;;;;;;15.12;51.05;96025.53;4172644;28;5842;-68
2023/03/31 15:19:35;;;;;;;;;;;;;;;15.11;51.15;96029.25;4178630;28;5757;-68
2023/03/31 15:21:39;;;;;;;;;;;;;;;15.10;51.08;96040.13;4178195;28;5863;-68
2023/03/31 15:23:42;;;;;;;;;;;;;;;15.12;51.23;96046.03;4171711;28;5838;-67
2023/03/31 15:25:45;;;;;;;;;;;;;;;15.10;51.33;96048.91;4176444;28;5820;-67
2023/03/31 15:27:54;;;;;;;;;;;;;;;15.10;51.17;96056.91;4177956;28;5725;-67
2023/03/31 15:30:01;;;;;;;;;;;;;;;15.15;51.28;96067.63;4181407;28;5690;-67
2023/03/31 15:32:12;;;;;;;;;;;;;;;15.17;51.27;96075.38;4174797;28;5796;-67
2023/03/31 15:34:21;;;;;;;;;;;;;;;15.20;51.05;96082.91;4177492;28;5704;-67
2023/03/31 15:36:28;;;;;;;;;;;;;;;15.18;51.00;96081.53;4180221;28;5776;-67
2023/03/31 15:38:31;;;;;;;;;;;;;;;15.17;50.88;96048.75;4180249;28;5801;-68
2023/03/31 15:40:38;;;;;;;;;;;;;;;15.17;51.05;96077.22;4178229;28;5899;-67
2023/03/31 15:42:41;;;;;;;;;;;;;;;15.13;50.91;96091.03;4175953;28;5841;-66
2023/03/31 15:44:54;;;;;;;;;;;;;;;15.07;51.09;96064.56;4178430;28;5745;-66
2023/03/31 15:47:00;;;;;;;;;;;;;;;15.02;51.02;96064.47;4172666;28;5721;-67
2023/03/31 15:49:06;;;;;;;;;;;;;;;14.99;51.15;96062.28;4169270;28;5932;-68
2023/03/31 15:51:19;;;;;;;;;;;;;;;15.02;51.36;96062.59;4180075;28;5741;-69
2023/03/31 15:53:28;;;;;;;;;;;;;;;15.07;51.00;96052.06;4179941;28;5713;-68
2023/03/31 15:55:39;;;;;;;;;;;;;;;15.20;50.96;96058.16;4174059;28;6540;-70
2023/03/31 15:57:44;;;;;;;;;;;;;;;15.21;50.76;96044.59;4178658;28;5800;-67
2023/03/31 15:59:49;;;;;;;;;;;;;;;15.26;50.88;96057.97;4180625;28;5812;-70
2023/03/31 16:02:16;;;;;;;;;;;;;;;15.28;50.83;96037.22;4177332;28;6255;-68
2023/03/31 16:04:21;;;;;;;;;;;;;;;15.35;50.86;96042.41;4181420;28;5756;-69
2023/03/31 16:06:35;;;;;;;;;;;;;;;15.37;50.64;96037.66;4179326;28;5987;-69
2023/03/31 16:08:44;;;;;;;;;;;;;;;15.42;50.73;96025.25;4175933;28;5944;-69
2023/03/31 16:10:49;;;;;;;;;;;;;;;15.44;50.47;96028.47;4180752;28;5909;-68
2023/03/31 16:12:55;;;;;;;;;;;;;;;15.48;50.46;96031.44;4179685;28;5804;-68
2023/03/31 16:15:03;;;;;;;;;;;;;;;15.51;50.61;96033.59;4180707;28;5804;-67
2023/03/31 16:17:09;;;;;;;;;;;;;;;15.52;50.53;96023.78;4182318;28;5797;-67
2023/03/31 16:19:13;;;;;;;;;;;;;;;15.54;50.64;96022.50;4182840;28;5804;-67
2023/03/31 16:21:22;;;;;;;;;;;;;;;15.56;50.42;96023.06;4179404;28;5849;-66
2023/03/31 16:23:27;;;;;;;;;;;;;;;15.55;50.31;96039.28;4178537;28;5886;-67
2023/03/31 16:25:32;;;;;;;;;;;;;;;15.50;50.12;96055.16;4191454;28;5812;-67
2023/03/31 16:27:40;;;;;;;;;;;;;;;15.44;50.33;96059.63;4174702;28;5706;-67
2023/03/31 16:29:43;;;;;;;;;;;;;;;15.40;50.28;96055.81;4182578;28;5800;-68
2023/03/31 16:31:46;;;;;;;;;;;;;;;15.40;50.14;96066.44;4179350;28;5781;-66
2023/03/31 16:33:54;;;;;;;;;;;;;;;15.38;50.38;96071.22;4177564;28;5726;-66
2023/03/31 16:35:57;;;;;;;;;;;;;;;15.31;50.42;96086.56;4175120;28;5705;-66
2023/03/31 16:38:02;;;;;;;;;;;;;;;15.27;50.41;96077.41;4175282;28;5875;-67
2023/03/31 16:40:06;;;;;;;;;;;;;;;15.27;50.45;96080.06;4182561;28;5812;-66
2023/03/31 16:42:09;;;;;;;;;;;;;;;15.31;50.54;96105.19;4174266;28;5763;-67
2023/03/31 16:44:12;;;;;;;;;;;;;;;15.30;50.20;96104.41;4180025;28;5757;-67